sensor_id;sensor_type;location;lat;lon;timestamp;P1;durP1;ratioP1;P2;durP2;ratioP2
13584;SDS011;6863;48.402;9.994;2023-07-13T00:02:22;12.65;;;10.25;;
13584;SDS011;6863;48.402;9.994;2023-07-13T00:04:48;11.88;;;10.65;;
13584;SDS011;6863;48.402;9.994;2023-07-13T00:07:14;13.35;;;11.98;;
13584;SDS011;6863;48.402;9.994;2023-07-13T00:09:40;13.27;;;11.57;;
13584;SDS011;6863;48.402;9.994;2023-07-13T00:15:28;14.32;;;12.85;;
13584;SDS011;6863;48.402;9.994;2023-07-13T00:17:57;13.93;;;12.65;;
13584;SDS011;6863;48.402;9.994;2023-07-13T00:20:23;14.95;;;12.27;;
13584;SDS011;6863;48.402;9.994;2023-07-13T00:22:50;13.57;;;11.68;;
13584;SDS011;6863;48.402;9.994;2023-07-13T00:25:18;12.25;;;10.98;;
13584;SDS011;6863;48.402;9.994;2023-07-13T00:27:46;12.20;;;10.90;;
13584;SDS011;6863;48.402;9.994;2023-07-13T00:30:13;11.63;;;10.27;;
13584;SDS011;6863;48.402;9.994;2023-07-13T00:32:40;10.30;;;9.30;;
13584;SDS011;6863;48.402;9.994;2023-07-13T00:35:05;10.93;;;9.82;;
13584;SDS011;6863;48.402;9.994;2023-07-13T00:37:32;9.55;;;8.57;;
13584;SDS011;6863;48.402;9.994;2023-07-13T00:39:58;9.60;;;8.60;;
13584;SDS011;6863;48.402;9.994;2023-07-13T00:42:23;7.07;;;6.45;;
13584;SDS011;6863;48.402;9.994;2023-07-13T00:45:03;7.57;;;6.85;;
13584;SDS011;6863;48.402;9.994;2023-07-13T00:47:51;7.18;;;6.47;;
13584;SDS011;6863;48.402;9.994;2023-07-13T00:50:17;6.93;;;5.50;;
13584;SDS011;6863;48.402;9.994;2023-07-13T00:52:49;6.03;;;5.45;;
13584;SDS011;6863;48.402;9.994;2023-07-13T00:55:18;8.00;;;5.60;;
13584;SDS011;6863;48.402;9.994;2023-07-13T00:57:45;5.93;;;5.32;;
13584;SDS011;6863;48.402;9.994;2023-07-13T01:00:11;5.80;;;5.30;;
13584;SDS011;6863;48.402;9.994;2023-07-13T01:02:38;5.20;;;4.70;;
13584;SDS011;6863;48.402;9.994;2023-07-13T01:05:10;4.88;;;4.40;;
13584;SDS011;6863;48.402;9.994;2023-07-13T01:07:37;5.57;;;4.82;;
13584;SDS011;6863;48.402;9.994;2023-07-13T01:10:03;5.75;;;4.68;;
13584;SDS011;6863;48.402;9.994;2023-07-13T01:12:29;6.30;;;4.90;;
13584;SDS011;6863;48.402;9.994;2023-07-13T01:14:59;5.65;;;4.95;;
13584;SDS011;6863;48.402;9.994;2023-07-13T01:17:26;9.77;;;5.13;;
13584;SDS011;6863;48.402;9.994;2023-07-13T01:19:53;5.30;;;4.18;;
13584;SDS011;6863;48.402;9.994;2023-07-13T01:22:20;4.88;;;4.15;;
13584;SDS011;6863;48.402;9.994;2023-07-13T01:24:50;6.35;;;4.38;;
13584;SDS011;6863;48.402;9.994;2023-07-13T01:27:19;5.45;;;3.72;;
13584;SDS011;6863;48.402;9.994;2023-07-13T01:29:48;4.93;;;4.28;;
13584;SDS011;6863;48.402;9.994;2023-07-13T01:32:16;4.43;;;3.75;;
13584;SDS011;6863;48.402;9.994;2023-07-13T01:34:47;4.55;;;4.10;;
13584;SDS011;6863;48.402;9.994;2023-07-13T01:37:13;4.30;;;3.97;;
13584;SDS011;6863;48.402;9.994;2023-07-13T01:39:39;4.63;;;3.50;;
13584;SDS011;6863;48.402;9.994;2023-07-13T01:42:05;4.45;;;3.40;;
13584;SDS011;6863;48.402;9.994;2023-07-13T01:44:30;4.47;;;4.13;;
13584;SDS011;6863;48.402;9.994;2023-07-13T01:46:56;3.75;;;3.45;;
13584;SDS011;6863;48.402;9.994;2023-07-13T01:49:22;4.05;;;3.50;;
13584;SDS011;6863;48.402;9.994;2023-07-13T01:51:48;4.45;;;3.40;;
13584;SDS011;6863;48.402;9.994;2023-07-13T01:54:13;5.63;;;3.38;;
13584;SDS011;6863;48.402;9.994;2023-07-13T01:56:39;4.93;;;2.88;;
13584;SDS011;6863;48.402;9.994;2023-07-13T01:59:06;5.07;;;2.80;;
13584;SDS011;6863;48.402;9.994;2023-07-13T02:01:33;3.00;;;2.80;;
13584;SDS011;6863;48.402;9.994;2023-07-13T02:03:58;3.78;;;3.38;;
13584;SDS011;6863;48.402;9.994;2023-07-13T02:06:24;6.18;;;2.90;;
13584;SDS011;6863;48.402;9.994;2023-07-13T02:08:49;4.15;;;3.00;;
13584;SDS011;6863;48.402;9.994;2023-07-13T02:11:15;4.40;;;3.30;;
13584;SDS011;6863;48.402;9.994;2023-07-13T02:13:41;4.85;;;2.83;;
13584;SDS011;6863;48.402;9.994;2023-07-13T02:16:06;4.18;;;3.10;;
13584;SDS011;6863;48.402;9.994;2023-07-13T02:18:32;3.83;;;3.08;;
13584;SDS011;6863;48.402;9.994;2023-07-13T02:20:57;3.20;;;2.90;;
13584;SDS011;6863;48.402;9.994;2023-07-13T02:23:23;3.63;;;3.33;;
13584;SDS011;6863;48.402;9.994;2023-07-13T02:25:49;5.38;;;2.95;;
13584;SDS011;6863;48.402;9.994;2023-07-13T02:28:18;3.58;;;3.15;;
13584;SDS011;6863;48.402;9.994;2023-07-13T02:30:44;5.00;;;3.10;;
13584;SDS011;6863;48.402;9.994;2023-07-13T02:33:10;5.32;;;3.30;;
13584;SDS011;6863;48.402;9.994;2023-07-13T02:35:35;4.57;;;2.75;;
13584;SDS011;6863;48.402;9.994;2023-07-13T02:38:01;3.15;;;2.78;;
13584;SDS011;6863;48.402;9.994;2023-07-13T02:40:26;4.28;;;3.17;;
13584;SDS011;6863;48.402;9.994;2023-07-13T02:42:52;3.17;;;2.88;;
13584;SDS011;6863;48.402;9.994;2023-07-13T02:45:17;7.60;;;3.33;;
13584;SDS011;6863;48.402;9.994;2023-07-13T02:47:43;3.53;;;3.08;;
13584;SDS011;6863;48.402;9.994;2023-07-13T02:50:09;4.40;;;3.17;;
13584;SDS011;6863;48.402;9.994;2023-07-13T02:52:34;4.32;;;3.10;;
13584;SDS011;6863;48.402;9.994;2023-07-13T02:55:00;3.58;;;3.00;;
13584;SDS011;6863;48.402;9.994;2023-07-13T02:57:25;4.00;;;3.22;;
13584;SDS011;6863;48.402;9.994;2023-07-13T02:59:53;4.63;;;3.10;;
13584;SDS011;6863;48.402;9.994;2023-07-13T03:02:21;4.13;;;3.75;;
13584;SDS011;6863;48.402;9.994;2023-07-13T03:04:47;4.03;;;3.55;;
13584;SDS011;6863;48.402;9.994;2023-07-13T03:07:12;4.10;;;3.40;;
13584;SDS011;6863;48.402;9.994;2023-07-13T03:09:39;3.17;;;2.87;;
13584;SDS011;6863;48.402;9.994;2023-07-13T03:12:05;3.75;;;2.90;;
13584;SDS011;6863;48.402;9.994;2023-07-13T03:14:30;4.00;;;3.00;;
13584;SDS011;6863;48.402;9.994;2023-07-13T03:16:56;2.95;;;2.53;;
13584;SDS011;6863;48.402;9.994;2023-07-13T03:19:22;5.73;;;2.77;;
13584;SDS011;6863;48.402;9.994;2023-07-13T03:21:47;3.37;;;2.87;;
13584;SDS011;6863;48.402;9.994;2023-07-13T03:24:13;3.20;;;2.90;;
13584;SDS011;6863;48.402;9.994;2023-07-13T03:26:38;3.17;;;2.90;;
13584;SDS011;6863;48.402;9.994;2023-07-13T03:29:04;3.90;;;3.00;;
13584;SDS011;6863;48.402;9.994;2023-07-13T03:31:34;3.77;;;3.07;;
13584;SDS011;6863;48.402;9.994;2023-07-13T03:34:01;4.32;;;3.13;;
13584;SDS011;6863;48.402;9.994;2023-07-13T03:36:28;2.57;;;2.40;;
13584;SDS011;6863;48.402;9.994;2023-07-13T03:38:56;4.83;;;3.00;;
13584;SDS011;6863;48.402;9.994;2023-07-13T03:41:24;3.57;;;2.90;;
13584;SDS011;6863;48.402;9.994;2023-07-13T03:43:50;5.27;;;3.60;;
13584;SDS011;6863;48.402;9.994;2023-07-13T03:46:16;4.97;;;3.10;;
13584;SDS011;6863;48.402;9.994;2023-07-13T03:48:44;3.33;;;3.03;;
13584;SDS011;6863;48.402;9.994;2023-07-13T03:51:11;4.93;;;3.43;;
13584;SDS011;6863;48.402;9.994;2023-07-13T03:53:40;3.47;;;3.17;;
13584;SDS011;6863;48.402;9.994;2023-07-13T03:56:07;3.83;;;3.43;;
13584;SDS011;6863;48.402;9.994;2023-07-13T03:58:34;3.57;;;2.90;;
13584;SDS011;6863;48.402;9.994;2023-07-13T04:01:02;7.43;;;3.23;;
13584;SDS011;6863;48.402;9.994;2023-07-13T04:03:30;3.53;;;3.03;;
13584;SDS011;6863;48.402;9.994;2023-07-13T04:05:58;4.03;;;3.23;;
13584;SDS011;6863;48.402;9.994;2023-07-13T04:08:28;3.20;;;2.90;;
13584;SDS011;6863;48.402;9.994;2023-07-13T04:10:55;3.80;;;3.33;;
13584;SDS011;6863;48.402;9.994;2023-07-13T04:13:21;4.27;;;3.07;;
13584;SDS011;6863;48.402;9.994;2023-07-13T04:15:47;4.00;;;3.43;;
13584;SDS011;6863;48.402;9.994;2023-07-13T04:18:12;5.57;;;3.10;;
13584;SDS011;6863;48.402;9.994;2023-07-13T04:20:38;4.37;;;2.87;;
13584;SDS011;6863;48.402;9.994;2023-07-13T04:23:03;3.33;;;3.03;;
13584;SDS011;6863;48.402;9.994;2023-07-13T04:25:29;3.13;;;2.85;;
13584;SDS011;6863;48.402;9.994;2023-07-13T04:27:55;3.17;;;2.88;;
13584;SDS011;6863;48.402;9.994;2023-07-13T04:30:21;4.72;;;2.80;;
13584;SDS011;6863;48.402;9.994;2023-07-13T04:32:47;3.67;;;3.20;;
13584;SDS011;6863;48.402;9.994;2023-07-13T04:35:13;2.67;;;2.35;;
13584;SDS011;6863;48.402;9.994;2023-07-13T04:37:39;4.05;;;3.03;;
13584;SDS011;6863;48.402;9.994;2023-07-13T04:40:05;4.72;;;3.38;;
13584;SDS011;6863;48.402;9.994;2023-07-13T04:42:31;3.72;;;3.17;;
13584;SDS011;6863;48.402;9.994;2023-07-13T04:44:59;3.15;;;2.70;;
13584;SDS011;6863;48.402;9.994;2023-07-13T04:47:25;5.30;;;2.58;;
13584;SDS011;6863;48.402;9.994;2023-07-13T04:49:50;3.15;;;2.70;;
13584;SDS011;6863;48.402;9.994;2023-07-13T04:52:16;3.22;;;2.90;;
13584;SDS011;6863;48.402;9.994;2023-07-13T04:54:41;5.88;;;2.70;;
13584;SDS011;6863;48.402;9.994;2023-07-13T04:57:07;5.35;;;2.90;;
13584;SDS011;6863;48.402;9.994;2023-07-13T04:59:33;6.18;;;3.00;;
13584;SDS011;6863;48.402;9.994;2023-07-13T05:04:36;6.05;;;4.47;;
13584;SDS011;6863;48.402;9.994;2023-07-13T05:07:02;6.00;;;4.93;;
13584;SDS011;6863;48.402;9.994;2023-07-13T05:09:27;6.85;;;2.83;;
13584;SDS011;6863;48.402;9.994;2023-07-13T05:11:53;6.03;;;3.40;;
13584;SDS011;6863;48.402;9.994;2023-07-13T05:14:18;6.80;;;3.20;;
13584;SDS011;6863;48.402;9.994;2023-07-13T05:16:44;5.75;;;3.70;;
13584;SDS011;6863;48.402;9.994;2023-07-13T05:19:09;5.13;;;3.83;;
13584;SDS011;6863;48.402;9.994;2023-07-13T05:21:37;4.50;;;3.80;;
13584;SDS011;6863;48.402;9.994;2023-07-13T05:24:03;5.70;;;3.20;;
13584;SDS011;6863;48.402;9.994;2023-07-13T05:26:28;4.47;;;3.65;;
13584;SDS011;6863;48.402;9.994;2023-07-13T05:28:54;3.85;;;3.45;;
13584;SDS011;6863;48.402;9.994;2023-07-13T05:31:20;3.83;;;3.42;;
13584;SDS011;6863;48.402;9.994;2023-07-13T05:33:45;5.18;;;3.53;;
13584;SDS011;6863;48.402;9.994;2023-07-13T05:36:11;6.13;;;3.42;;
13584;SDS011;6863;48.402;9.994;2023-07-13T05:38:37;4.72;;;3.90;;
13584;SDS011;6863;48.402;9.994;2023-07-13T05:41:02;4.85;;;4.28;;
13584;SDS011;6863;48.402;9.994;2023-07-13T05:43:28;4.55;;;3.35;;
13584;SDS011;6863;48.402;9.994;2023-07-13T05:45:54;7.03;;;4.25;;
13584;SDS011;6863;48.402;9.994;2023-07-13T05:48:21;4.78;;;3.78;;
13584;SDS011;6863;48.402;9.994;2023-07-13T05:50:46;4.00;;;3.60;;
13584;SDS011;6863;48.402;9.994;2023-07-13T05:53:12;4.97;;;3.30;;
13584;SDS011;6863;48.402;9.994;2023-07-13T05:55:44;4.18;;;3.50;;
13584;SDS011;6863;48.402;9.994;2023-07-13T05:58:18;4.95;;;3.00;;
13584;SDS011;6863;48.402;9.994;2023-07-13T06:00:44;4.93;;;3.10;;
13584;SDS011;6863;48.402;9.994;2023-07-13T06:03:10;5.20;;;2.67;;
13584;SDS011;6863;48.402;9.994;2023-07-13T06:05:36;6.68;;;2.95;;
13584;SDS011;6863;48.402;9.994;2023-07-13T06:08:04;4.82;;;2.90;;
13584;SDS011;6863;48.402;9.994;2023-07-13T06:10:32;5.78;;;3.20;;
13584;SDS011;6863;48.402;9.994;2023-07-13T06:12:58;3.28;;;2.60;;
13584;SDS011;6863;48.402;9.994;2023-07-13T06:15:23;3.28;;;2.97;;
13584;SDS011;6863;48.402;9.994;2023-07-13T06:17:49;4.28;;;3.05;;
13584;SDS011;6863;48.402;9.994;2023-07-13T06:20:15;3.95;;;3.22;;
13584;SDS011;6863;48.402;9.994;2023-07-13T06:22:40;7.05;;;3.38;;
13584;SDS011;6863;48.402;9.994;2023-07-13T06:25:06;3.58;;;3.03;;
13584;SDS011;6863;48.402;9.994;2023-07-13T06:27:32;6.88;;;3.30;;
13584;SDS011;6863;48.402;9.994;2023-07-13T06:29:57;3.55;;;3.20;;
13584;SDS011;6863;48.402;9.994;2023-07-13T06:32:23;3.70;;;3.20;;
13584;SDS011;6863;48.402;9.994;2023-07-13T06:34:49;4.07;;;3.10;;
13584;SDS011;6863;48.402;9.994;2023-07-13T06:37:16;2.75;;;2.55;;
13584;SDS011;6863;48.402;9.994;2023-07-13T06:39:42;3.00;;;2.70;;
13584;SDS011;6863;48.402;9.994;2023-07-13T06:42:08;5.70;;;3.58;;
13584;SDS011;6863;48.402;9.994;2023-07-13T06:44:34;5.97;;;3.17;;
13584;SDS011;6863;48.402;9.994;2023-07-13T06:47:00;3.60;;;2.33;;
13584;SDS011;6863;48.402;9.994;2023-07-13T06:49:26;4.05;;;3.00;;
13584;SDS011;6863;48.402;9.994;2023-07-13T06:51:51;6.50;;;3.13;;
13584;SDS011;6863;48.402;9.994;2023-07-13T06:54:17;8.63;;;3.28;;
13584;SDS011;6863;48.402;9.994;2023-07-13T06:56:42;8.68;;;3.60;;
13584;SDS011;6863;48.402;9.994;2023-07-13T06:59:08;11.82;;;3.53;;
13584;SDS011;6863;48.402;9.994;2023-07-13T07:01:34;5.70;;;3.42;;
13584;SDS011;6863;48.402;9.994;2023-07-13T07:03:59;3.17;;;2.88;;
13584;SDS011;6863;48.402;9.994;2023-07-13T07:06:28;2.40;;;2.20;;
13584;SDS011;6863;48.402;9.994;2023-07-13T07:08:54;3.47;;;2.30;;
13584;SDS011;6863;48.402;9.994;2023-07-13T07:11:20;3.08;;;2.47;;
13584;SDS011;6863;48.402;9.994;2023-07-13T07:13:48;3.08;;;2.55;;
13584;SDS011;6863;48.402;9.994;2023-07-13T07:16:14;4.63;;;2.20;;
13584;SDS011;6863;48.402;9.994;2023-07-13T07:18:41;5.38;;;2.90;;
13584;SDS011;6863;48.402;9.994;2023-07-13T07:21:07;3.53;;;2.30;;
13584;SDS011;6863;48.402;9.994;2023-07-13T07:23:32;3.92;;;2.38;;
13584;SDS011;6863;48.402;9.994;2023-07-13T07:25:58;3.92;;;2.30;;
13584;SDS011;6863;48.402;9.994;2023-07-13T07:28:24;3.25;;;2.58;;
13584;SDS011;6863;48.402;9.994;2023-07-13T07:30:52;4.78;;;2.50;;
13584;SDS011;6863;48.402;9.994;2023-07-13T07:33:20;4.05;;;2.20;;
13584;SDS011;6863;48.402;9.994;2023-07-13T07:35:45;3.17;;;2.10;;
13584;SDS011;6863;48.402;9.994;2023-07-13T07:38:11;3.10;;;2.25;;
13584;SDS011;6863;48.402;9.994;2023-07-13T07:40:37;3.33;;;2.20;;
13584;SDS011;6863;48.402;9.994;2023-07-13T07:43:04;2.92;;;2.28;;
13584;SDS011;6863;48.402;9.994;2023-07-13T07:45:30;8.48;;;6.43;;
13584;SDS011;6863;48.402;9.994;2023-07-13T07:47:55;4.32;;;2.30;;
13584;SDS011;6863;48.402;9.994;2023-07-13T07:50:24;2.88;;;2.28;;
13584;SDS011;6863;48.402;9.994;2023-07-13T07:52:53;3.60;;;2.22;;
13584;SDS011;6863;48.402;9.994;2023-07-13T07:55:21;2.58;;;2.20;;
13584;SDS011;6863;48.402;9.994;2023-07-13T07:57:47;3.80;;;2.63;;
13584;SDS011;6863;48.402;9.994;2023-07-13T08:00:13;4.45;;;2.40;;
13584;SDS011;6863;48.402;9.994;2023-07-13T08:02:39;2.60;;;2.33;;
13584;SDS011;6863;48.402;9.994;2023-07-13T08:05:06;5.75;;;2.40;;
13584;SDS011;6863;48.402;9.994;2023-07-13T08:07:33;3.78;;;2.88;;
13584;SDS011;6863;48.402;9.994;2023-07-13T08:09:59;4.10;;;2.53;;
13584;SDS011;6863;48.402;9.994;2023-07-13T08:12:27;2.83;;;2.58;;
13584;SDS011;6863;48.402;9.994;2023-07-13T08:14:52;5.63;;;2.20;;
13584;SDS011;6863;48.402;9.994;2023-07-13T08:17:21;3.10;;;2.80;;
13584;SDS011;6863;48.402;9.994;2023-07-13T08:19:47;2.97;;;2.60;;
13584;SDS011;6863;48.402;9.994;2023-07-13T08:22:12;3.45;;;2.70;;
13584;SDS011;6863;48.402;9.994;2023-07-13T08:24:38;2.72;;;2.33;;
13584;SDS011;6863;48.402;9.994;2023-07-13T08:27:04;3.58;;;2.50;;
13584;SDS011;6863;48.402;9.994;2023-07-13T08:29:29;5.13;;;2.60;;
13584;SDS011;6863;48.402;9.994;2023-07-13T08:31:57;3.40;;;2.40;;
13584;SDS011;6863;48.402;9.994;2023-07-13T08:34:23;4.88;;;2.70;;
13584;SDS011;6863;48.402;9.994;2023-07-13T08:36:48;4.85;;;2.30;;
13584;SDS011;6863;48.402;9.994;2023-07-13T08:39:14;4.30;;;2.75;;
13584;SDS011;6863;48.402;9.994;2023-07-13T08:41:39;2.95;;;2.63;;
13584;SDS011;6863;48.402;9.994;2023-07-13T08:44:06;3.67;;;2.60;;
13584;SDS011;6863;48.402;9.994;2023-07-13T08:46:43;5.28;;;2.50;;
13584;SDS011;6863;48.402;9.994;2023-07-13T08:49:12;4.68;;;2.83;;
13584;SDS011;6863;48.402;9.994;2023-07-13T08:54:22;4.35;;;2.65;;
13584;SDS011;6863;48.402;9.994;2023-07-13T08:57:15;2.65;;;2.45;;
13584;SDS011;6863;48.402;9.994;2023-07-13T08:59:46;4.07;;;3.00;;
13584;SDS011;6863;48.402;9.994;2023-07-13T09:04:53;5.70;;;2.42;;
13584;SDS011;6863;48.402;9.994;2023-07-13T09:10:31;4.50;;;2.78;;
13584;SDS011;6863;48.402;9.994;2023-07-13T09:13:07;3.50;;;2.17;;
13584;SDS011;6863;48.402;9.994;2023-07-13T09:16:00;4.07;;;2.78;;
13584;SDS011;6863;48.402;9.994;2023-07-13T09:18:28;5.85;;;2.65;;
13584;SDS011;6863;48.402;9.994;2023-07-13T09:20:59;4.18;;;2.50;;
13584;SDS011;6863;48.402;9.994;2023-07-13T09:23:34;3.20;;;2.42;;
13584;SDS011;6863;48.402;9.994;2023-07-13T09:28:42;2.72;;;2.22;;
13584;SDS011;6863;48.402;9.994;2023-07-13T09:33:40;3.67;;;2.08;;
13584;SDS011;6863;48.402;9.994;2023-07-13T09:36:23;7.38;;;2.50;;
13584;SDS011;6863;48.402;9.994;2023-07-13T09:39:04;5.55;;;2.63;;
13584;SDS011;6863;48.402;9.994;2023-07-13T09:41:43;3.75;;;2.85;;
13584;SDS011;6863;48.402;9.994;2023-07-13T09:44:16;2.22;;;2.13;;
13584;SDS011;6863;48.402;9.994;2023-07-13T09:46:44;2.47;;;1.90;;
13584;SDS011;6863;48.402;9.994;2023-07-13T09:49:18;2.50;;;2.30;;
13584;SDS011;6863;48.402;9.994;2023-07-13T09:51:48;2.25;;;1.90;;
13584;SDS011;6863;48.402;9.994;2023-07-13T09:54:27;2.45;;;1.73;;
13584;SDS011;6863;48.402;9.994;2023-07-13T09:56:59;2.63;;;2.17;;
13584;SDS011;6863;48.402;9.994;2023-07-13T09:59:29;3.03;;;2.22;;
13584;SDS011;6863;48.402;9.994;2023-07-13T10:04:40;3.65;;;2.28;;
13584;SDS011;6863;48.402;9.994;2023-07-13T10:07:07;4.32;;;3.47;;
13584;SDS011;6863;48.402;9.994;2023-07-13T10:09:38;3.63;;;2.60;;
13584;SDS011;6863;48.402;9.994;2023-07-13T10:12:04;3.33;;;1.98;;
13584;SDS011;6863;48.402;9.994;2023-07-13T10:14:38;6.38;;;2.72;;
13584;SDS011;6863;48.402;9.994;2023-07-13T10:17:08;5.82;;;2.50;;
13584;SDS011;6863;48.402;9.994;2023-07-13T10:19:38;4.32;;;2.20;;
13584;SDS011;6863;48.402;9.994;2023-07-13T10:24:36;3.15;;;2.10;;
13584;SDS011;6863;48.402;9.994;2023-07-13T10:29:42;3.45;;;2.63;;
13584;SDS011;6863;48.402;9.994;2023-07-13T10:32:12;3.80;;;2.35;;
13584;SDS011;6863;48.402;9.994;2023-07-13T10:34:39;2.67;;;2.10;;
13584;SDS011;6863;48.402;9.994;2023-07-13T10:37:14;7.25;;;2.40;;
13584;SDS011;6863;48.402;9.994;2023-07-13T10:39:45;2.45;;;2.22;;
13584;SDS011;6863;48.402;9.994;2023-07-13T10:42:13;2.72;;;2.10;;
13584;SDS011;6863;48.402;9.994;2023-07-13T10:44:43;4.82;;;2.35;;
13584;SDS011;6863;48.402;9.994;2023-07-13T10:47:11;2.30;;;2.10;;
13584;SDS011;6863;48.402;9.994;2023-07-13T10:49:40;3.30;;;2.38;;
13584;SDS011;6863;48.402;9.994;2023-07-13T10:52:34;2.10;;;2.00;;
13584;SDS011;6863;48.402;9.994;2023-07-13T11:00:49;3.90;;;2.30;;
13584;SDS011;6863;48.402;9.994;2023-07-13T11:03:19;5.75;;;2.47;;
13584;SDS011;6863;48.402;9.994;2023-07-13T11:05:50;4.07;;;2.10;;
13584;SDS011;6863;48.402;9.994;2023-07-13T11:10:58;4.35;;;2.47;;
13584;SDS011;6863;48.402;9.994;2023-07-13T11:18:47;3.03;;;2.05;;
13584;SDS011;6863;48.402;9.994;2023-07-13T11:21:28;2.83;;;2.17;;
13584;SDS011;6863;48.402;9.994;2023-07-13T11:31:43;4.60;;;3.10;;
13584;SDS011;6863;48.402;9.994;2023-07-13T11:34:23;4.32;;;2.60;;
13584;SDS011;6863;48.402;9.994;2023-07-13T11:37:00;4.00;;;2.28;;
13584;SDS011;6863;48.402;9.994;2023-07-13T11:41:59;5.20;;;2.30;;
13584;SDS011;6863;48.402;9.994;2023-07-13T11:44:28;2.83;;;2.28;;
13584;SDS011;6863;48.402;9.994;2023-07-13T11:46:59;2.80;;;2.28;;
13584;SDS011;6863;48.402;9.994;2023-07-13T11:49:38;2.95;;;2.65;;
13584;SDS011;6863;48.402;9.994;2023-07-13T11:52:11;3.25;;;2.03;;
13584;SDS011;6863;48.402;9.994;2023-07-13T11:54:52;3.17;;;2.28;;
13584;SDS011;6863;48.402;9.994;2023-07-13T11:57:28;4.03;;;1.95;;
13584;SDS011;6863;48.402;9.994;2023-07-13T11:59:59;3.75;;;2.67;;
13584;SDS011;6863;48.402;9.994;2023-07-13T12:05:12;2.90;;;2.28;;
13584;SDS011;6863;48.402;9.994;2023-07-13T12:07:40;3.90;;;2.35;;
13584;SDS011;6863;48.402;9.994;2023-07-13T12:10:23;2.97;;;1.85;;
13584;SDS011;6863;48.402;9.994;2023-07-13T12:12:57;4.95;;;2.20;;
13584;SDS011;6863;48.402;9.994;2023-07-13T12:15:44;2.20;;;2.00;;
13584;SDS011;6863;48.402;9.994;2023-07-13T12:18:12;2.58;;;2.38;;
13584;SDS011;6863;48.402;9.994;2023-07-13T12:20:43;2.35;;;2.03;;
13584;SDS011;6863;48.402;9.994;2023-07-13T12:23:29;3.58;;;2.40;;
13584;SDS011;6863;48.402;9.994;2023-07-13T12:25:58;3.80;;;2.92;;
13584;SDS011;6863;48.402;9.994;2023-07-13T12:30:58;3.15;;;1.92;;
13584;SDS011;6863;48.402;9.994;2023-07-13T12:33:27;1.75;;;1.65;;
13584;SDS011;6863;48.402;9.994;2023-07-13T12:35:54;1.80;;;1.70;;
13584;SDS011;6863;48.402;9.994;2023-07-13T12:38:20;1.85;;;1.73;;
13584;SDS011;6863;48.402;9.994;2023-07-13T12:40:49;2.10;;;1.88;;
13584;SDS011;6863;48.402;9.994;2023-07-13T12:43:16;1.98;;;1.77;;
13584;SDS011;6863;48.402;9.994;2023-07-13T12:48:51;3.35;;;1.85;;
13584;SDS011;6863;48.402;9.994;2023-07-13T12:51:21;2.88;;;1.90;;
13584;SDS011;6863;48.402;9.994;2023-07-13T12:53:50;1.92;;;1.70;;
13584;SDS011;6863;48.402;9.994;2023-07-13T12:56:22;1.92;;;1.73;;
13584;SDS011;6863;48.402;9.994;2023-07-13T12:58:50;2.70;;;1.95;;
13584;SDS011;6863;48.402;9.994;2023-07-13T13:01:25;1.80;;;1.52;;
13584;SDS011;6863;48.402;9.994;2023-07-13T13:03:53;2.60;;;2.00;;
13584;SDS011;6863;48.402;9.994;2023-07-13T13:06:26;4.43;;;1.77;;
13584;SDS011;6863;48.402;9.994;2023-07-13T13:08:54;2.50;;;1.90;;
13584;SDS011;6863;48.402;9.994;2023-07-13T13:11:26;3.53;;;2.00;;
13584;SDS011;6863;48.402;9.994;2023-07-13T13:13:52;2.10;;;1.80;;
13584;SDS011;6863;48.402;9.994;2023-07-13T13:16:23;3.08;;;1.88;;
13584;SDS011;6863;48.402;9.994;2023-07-13T13:18:53;2.60;;;2.40;;
13584;SDS011;6863;48.402;9.994;2023-07-13T13:21:22;3.60;;;2.08;;
13584;SDS011;6863;48.402;9.994;2023-07-13T13:23:50;2.90;;;1.90;;
13584;SDS011;6863;48.402;9.994;2023-07-13T13:26:17;3.58;;;1.90;;
13584;SDS011;6863;48.402;9.994;2023-07-13T13:28:44;2.60;;;1.85;;
13584;SDS011;6863;48.402;9.994;2023-07-13T13:31:11;2.38;;;1.98;;
13584;SDS011;6863;48.402;9.994;2023-07-13T13:33:40;2.40;;;1.73;;
13584;SDS011;6863;48.402;9.994;2023-07-13T13:36:16;2.17;;;1.98;;
13584;SDS011;6863;48.402;9.994;2023-07-13T13:38:43;3.55;;;1.90;;
13584;SDS011;6863;48.402;9.994;2023-07-13T13:41:10;2.35;;;1.88;;
13584;SDS011;6863;48.402;9.994;2023-07-13T13:43:38;3.22;;;1.88;;
13584;SDS011;6863;48.402;9.994;2023-07-13T13:46:05;3.63;;;2.10;;
13584;SDS011;6863;48.402;9.994;2023-07-13T13:48:39;5.15;;;2.30;;
13584;SDS011;6863;48.402;9.994;2023-07-13T13:51:12;1.70;;;1.60;;
13584;SDS011;6863;48.402;9.994;2023-07-13T13:53:46;1.80;;;1.70;;
13584;SDS011;6863;48.402;9.994;2023-07-13T13:56:13;2.95;;;2.22;;
13584;SDS011;6863;48.402;9.994;2023-07-13T13:58:40;2.17;;;1.75;;
13584;SDS011;6863;48.402;9.994;2023-07-13T14:01:14;2.05;;;1.67;;
13584;SDS011;6863;48.402;9.994;2023-07-13T14:03:42;2.55;;;2.00;;
13584;SDS011;6863;48.402;9.994;2023-07-13T14:06:11;3.55;;;2.00;;
13584;SDS011;6863;48.402;9.994;2023-07-13T14:08:37;2.42;;;2.17;;
13584;SDS011;6863;48.402;9.994;2023-07-13T14:11:03;5.60;;;2.20;;
13584;SDS011;6863;48.402;9.994;2023-07-13T14:13:31;5.05;;;2.28;;
13584;SDS011;6863;48.402;9.994;2023-07-13T14:16:01;3.63;;;2.17;;
13584;SDS011;6863;48.402;9.994;2023-07-13T14:18:27;7.97;;;2.80;;
13584;SDS011;6863;48.402;9.994;2023-07-13T14:20:53;3.28;;;2.05;;
13584;SDS011;6863;48.402;9.994;2023-07-13T14:23:18;3.28;;;2.38;;
13584;SDS011;6863;48.402;9.994;2023-07-13T14:25:47;2.72;;;2.50;;
13584;SDS011;6863;48.402;9.994;2023-07-13T14:28:20;3.15;;;1.83;;
13584;SDS011;6863;48.402;9.994;2023-07-13T14:30:49;2.20;;;2.00;;
13584;SDS011;6863;48.402;9.994;2023-07-13T14:33:19;5.55;;;3.80;;
13584;SDS011;6863;48.402;9.994;2023-07-13T14:35:45;2.38;;;2.15;;
13584;SDS011;6863;48.402;9.994;2023-07-13T14:38:13;4.45;;;2.35;;
13584;SDS011;6863;48.402;9.994;2023-07-13T14:40:42;2.80;;;1.77;;
13584;SDS011;6863;48.402;9.994;2023-07-13T14:43:09;2.55;;;2.30;;
13584;SDS011;6863;48.402;9.994;2023-07-13T14:45:37;3.53;;;3.00;;
13584;SDS011;6863;48.402;9.994;2023-07-13T14:48:17;4.55;;;2.42;;
13584;SDS011;6863;48.402;9.994;2023-07-13T14:50:46;2.47;;;2.28;;
13584;SDS011;6863;48.402;9.994;2023-07-13T14:53:12;2.53;;;2.17;;
13584;SDS011;6863;48.402;9.994;2023-07-13T14:55:38;2.60;;;2.08;;
13584;SDS011;6863;48.402;9.994;2023-07-13T14:58:04;4.05;;;2.78;;
13584;SDS011;6863;48.402;9.994;2023-07-13T15:00:31;2.30;;;2.10;;
13584;SDS011;6863;48.402;9.994;2023-07-13T15:02:57;2.70;;;2.10;;
13584;SDS011;6863;48.402;9.994;2023-07-13T15:05:27;3.60;;;2.53;;
13584;SDS011;6863;48.402;9.994;2023-07-13T15:07:57;6.20;;;2.30;;
13584;SDS011;6863;48.402;9.994;2023-07-13T15:10:27;2.75;;;1.98;;
13584;SDS011;6863;48.402;9.994;2023-07-13T15:13:12;2.10;;;2.00;;
13584;SDS011;6863;48.402;9.994;2023-07-13T15:15:46;4.55;;;2.00;;
13584;SDS011;6863;48.402;9.994;2023-07-13T15:18:14;4.88;;;2.45;;
13584;SDS011;6863;48.402;9.994;2023-07-13T15:20:44;4.03;;;2.45;;
13584;SDS011;6863;48.402;9.994;2023-07-13T15:23:11;3.35;;;2.35;;
13584;SDS011;6863;48.402;9.994;2023-07-13T15:25:41;3.35;;;2.70;;
13584;SDS011;6863;48.402;9.994;2023-07-13T15:28:08;2.83;;;2.50;;
13584;SDS011;6863;48.402;9.994;2023-07-13T15:30:42;3.15;;;2.25;;
13584;SDS011;6863;48.402;9.994;2023-07-13T15:33:14;3.13;;;2.40;;
13584;SDS011;6863;48.402;9.994;2023-07-13T15:35:54;3.63;;;2.97;;
13584;SDS011;6863;48.402;9.994;2023-07-13T15:38:22;2.88;;;2.45;;
13584;SDS011;6863;48.402;9.994;2023-07-13T15:40:50;5.05;;;2.30;;
13584;SDS011;6863;48.402;9.994;2023-07-13T15:43:17;3.00;;;2.70;;
13584;SDS011;6863;48.402;9.994;2023-07-13T15:45:44;4.28;;;2.38;;
13584;SDS011;6863;48.402;9.994;2023-07-13T15:48:18;3.72;;;2.40;;
13584;SDS011;6863;48.402;9.994;2023-07-13T15:50:54;3.83;;;2.25;;
13584;SDS011;6863;48.402;9.994;2023-07-13T15:53:34;7.57;;;6.80;;
13584;SDS011;6863;48.402;9.994;2023-07-13T15:56:02;3.17;;;2.33;;
13584;SDS011;6863;48.402;9.994;2023-07-13T15:58:36;7.57;;;4.68;;
13584;SDS011;6863;48.402;9.994;2023-07-13T16:01:02;11.82;;;7.28;;
13584;SDS011;6863;48.402;9.994;2023-07-13T16:03:28;1.95;;;1.77;;
13584;SDS011;6863;48.402;9.994;2023-07-13T16:05:56;2.58;;;1.80;;
13584;SDS011;6863;48.402;9.994;2023-07-13T16:08:23;4.03;;;1.80;;